sensor_id;sensor_type;location;lat;lon;timestamp;temperature;humidity
18779;DHT22;9518;51.720;14.384;2022-08-19T00:01:58;22.70;99.90
18779;DHT22;9518;51.720;14.384;2022-08-19T00:04:28;22.70;99.90
18779;DHT22;9518;51.720;14.384;2022-08-19T00:06:57;22.70;99.90
18779;DHT22;9518;51.720;14.384;2022-08-19T00:09:26;22.70;99.90
18779;DHT22;9518;51.720;14.384;2022-08-19T00:11:54;22.70;99.90
18779;DHT22;9518;51.720;14.384;2022-08-19T00:14:23;22.70;1.00
18779;DHT22;9518;51.720;14.384;2022-08-19T00:16:51;22.60;1.00
18779;DHT22;9518;51.720;14.384;2022-08-19T00:19:20;22.60;1.00
18779;DHT22;9518;51.720;14.384;2022-08-19T00:21:47;22.60;1.00
18779;DHT22;9518;51.720;14.384;2022-08-19T00:24:15;22.60;1.00
18779;DHT22;9518;51.720;14.384;2022-08-19T00:26:44;22.50;99.90
18779;DHT22;9518;51.720;14.384;2022-08-19T00:29:14;22.40;1.00
18779;DHT22;9518;51.720;14.384;2022-08-19T00:31:42;22.30;1.00
18779;DHT22;9518;51.720;14.384;2022-08-19T00:34:11;22.30;1.00
18779;DHT22;9518;51.720;14.384;2022-08-19T00:36:38;22.20;99.90
18779;DHT22;9518;51.720;14.384;2022-08-19T00:39:05;22.20;1.00
18779;DHT22;9518;51.720;14.384;2022-08-19T00:41:32;22.20;1.00
18779;DHT22;9518;51.720;14.384;2022-08-19T00:44:04;22.20;1.00
18779;DHT22;9518;51.720;14.384;2022-08-19T00:46:32;22.20;1.00
18779;DHT22;9518;51.720;14.384;2022-08-19T00:49:11;22.30;1.00
18779;DHT22;9518;51.720;14.384;2022-08-19T00:51:41;22.30;1.00
18779;DHT22;9518;51.720;14.384;2022-08-19T00:54:09;22.30;1.00
18779;DHT22;9518;51.720;14.384;2022-08-19T00:56:36;22.30;1.00
18779;DHT22;9518;51.720;14.384;2022-08-19T00:59:05;22.30;1.00
18779;DHT22;9518;51.720;14.384;2022-08-19T01:01:34;22.30;1.00
18779;DHT22;9518;51.720;14.384;2022-08-19T01:04:02;22.30;1.00
18779;DHT22;9518;51.720;14.384;2022-08-19T01:06:32;22.20;1.00
18779;DHT22;9518;51.720;14.384;2022-08-19T01:09:00;22.20;99.90
18779;DHT22;9518;51.720;14.384;2022-08-19T01:11:27;22.10;1.00
18779;DHT22;9518;51.720;14.384;2022-08-19T01:13:54;22.10;3.30
18779;DHT22;9518;51.720;14.384;2022-08-19T01:16:25;22.10;99.90
18779;DHT22;9518;51.720;14.384;2022-08-19T01:18:53;22.10;99.90
18779;DHT22;9518;51.720;14.384;2022-08-19T01:21:24;22.10;99.90
18779;DHT22;9518;51.720;14.384;2022-08-19T01:23:54;22.10;99.90
18779;DHT22;9518;51.720;14.384;2022-08-19T01:26:23;22.00;1.00
18779;DHT22;9518;51.720;14.384;2022-08-19T01:28:52;22.00;1.00
18779;DHT22;9518;51.720;14.384;2022-08-19T01:31:21;21.90;1.00
18779;DHT22;9518;51.720;14.384;2022-08-19T01:33:49;21.80;1.00
18779;DHT22;9518;51.720;14.384;2022-08-19T01:36:22;21.70;1.00
18779;DHT22;9518;51.720;14.384;2022-08-19T01:38:51;21.50;99.90
18779;DHT22;9518;51.720;14.384;2022-08-19T01:41:19;21.40;1.00
18779;DHT22;9518;51.720;14.384;2022-08-19T01:43:48;21.20;1.00
18779;DHT22;9518;51.720;14.384;2022-08-19T01:46:16;21.10;99.90
18779;DHT22;9518;51.720;14.384;2022-08-19T01:48:43;21.00;99.90
18779;DHT22;9518;51.720;14.384;2022-08-19T01:51:11;20.90;1.00
18779;DHT22;9518;51.720;14.384;2022-08-19T01:53:39;20.80;1.00
18779;DHT22;9518;51.720;14.384;2022-08-19T01:56:09;20.70;1.00
18779;DHT22;9518;51.720;14.384;2022-08-19T01:58:40;20.60;1.00
18779;DHT22;9518;51.720;14.384;2022-08-19T02:01:08;20.50;1.00
18779;DHT22;9518;51.720;14.384;2022-08-19T02:03:35;20.50;1.00
18779;DHT22;9518;51.720;14.384;2022-08-19T02:06:03;20.50;1.00
18779;DHT22;9518;51.720;14.384;2022-08-19T02:08:32;20.40;1.00
18779;DHT22;9518;51.720;14.384;2022-08-19T02:10:59;20.40;1.00
18779;DHT22;9518;51.720;14.384;2022-08-19T02:13:26;20.40;1.00
18779;DHT22;9518;51.720;14.384;2022-08-19T02:15:55;20.40;1.00
18779;DHT22;9518;51.720;14.384;2022-08-19T02:18:22;20.30;1.00
18779;DHT22;9518;51.720;14.384;2022-08-19T02:20:49;20.20;99.90
18779;DHT22;9518;51.720;14.384;2022-08-19T02:23:16;20.20;1.00
18779;DHT22;9518;51.720;14.384;2022-08-19T02:25:44;20.20;1.00
18779;DHT22;9518;51.720;14.384;2022-08-19T02:28:12;20.10;1.00
18779;DHT22;9518;51.720;14.384;2022-08-19T02:30:40;20.10;1.00
18779;DHT22;9518;51.720;14.384;2022-08-19T02:33:09;20.10;1.00
18779;DHT22;9518;51.720;14.384;2022-08-19T02:35:42;20.00;1.00
18779;DHT22;9518;51.720;14.384;2022-08-19T02:38:09;20.10;1.00
18779;DHT22;9518;51.720;14.384;2022-08-19T02:40:56;20.00;30.30
18779;DHT22;9518;51.720;14.384;2022-08-19T02:43:23;20.00;99.90
18779;DHT22;9518;51.720;14.384;2022-08-19T02:45:51;20.00;99.90
18779;DHT22;9518;51.720;14.384;2022-08-19T02:48:22;20.00;99.90
18779;DHT22;9518;51.720;14.384;2022-08-19T02:50:50;20.00;99.90
18779;DHT22;9518;51.720;14.384;2022-08-19T02:53:20;20.00;99.90
18779;DHT22;9518;51.720;14.384;2022-08-19T02:55:48;20.20;99.90
18779;DHT22;9518;51.720;14.384;2022-08-19T02:58:15;20.20;99.90
18779;DHT22;9518;51.720;14.384;2022-08-19T03:00:44;20.30;99.90
18779;DHT22;9518;51.720;14.384;2022-08-19T03:03:12;20.40;99.90
18779;DHT22;9518;51.720;14.384;2022-08-19T03:05:40;20.40;99.90
18779;DHT22;9518;51.720;14.384;2022-08-19T03:08:08;20.30;99.90
18779;DHT22;9518;51.720;14.384;2022-08-19T03:10:43;20.30;99.90
18779;DHT22;9518;51.720;14.384;2022-08-19T03:13:12;20.30;99.90
18779;DHT22;9518;51.720;14.384;2022-08-19T03:15:40;20.30;99.90
18779;DHT22;9518;51.720;14.384;2022-08-19T03:18:07;20.30;99.90
18779;DHT22;9518;51.720;14.384;2022-08-19T03:20:41;20.30;99.90
18779;DHT22;9518;51.720;14.384;2022-08-19T03:23:09;20.30;99.90
18779;DHT22;9518;51.720;14.384;2022-08-19T03:25:37;20.20;99.90
18779;DHT22;9518;51.720;14.384;2022-08-19T03:28:06;20.20;99.90
18779;DHT22;9518;51.720;14.384;2022-08-19T03:30:33;20.20;99.90
18779;DHT22;9518;51.720;14.384;2022-08-19T03:33:00;20.20;99.90
18779;DHT22;9518;51.720;14.384;2022-08-19T03:35:27;20.20;99.90
18779;DHT22;9518;51.720;14.384;2022-08-19T03:37:55;20.10;99.90
18779;DHT22;9518;51.720;14.384;2022-08-19T03:40:25;20.10;99.90
18779;DHT22;9518;51.720;14.384;2022-08-19T03:42:52;20.00;99.90
18779;DHT22;9518;51.720;14.384;2022-08-19T03:45:19;20.00;99.90
18779;DHT22;9518;51.720;14.384;2022-08-19T03:47:46;20.00;99.90
18779;DHT22;9518;51.720;14.384;2022-08-19T03:50:12;20.00;99.90
18779;DHT22;9518;51.720;14.384;2022-08-19T03:52:39;19.90;99.90
18779;DHT22;9518;51.720;14.384;2022-08-19T03:55:08;19.90;99.90
18779;DHT22;9518;51.720;14.384;2022-08-19T03:57:35;19.90;99.90
18779;DHT22;9518;51.720;14.384;2022-08-19T04:00:04;19.80;99.90
18779;DHT22;9518;51.720;14.384;2022-08-19T04:02:32;19.80;99.90
18779;DHT22;9518;51.720;14.384;2022-08-19T04:04:59;19.70;99.90
18779;DHT22;9518;51.720;14.384;2022-08-19T04:07:26;19.70;99.90
18779;DHT22;9518;51.720;14.384;2022-08-19T04:09:53;19.70;99.90
18779;DHT22;9518;51.720;14.384;2022-08-19T04:12:21;19.70;99.90
18779;DHT22;9518;51.720;14.384;2022-08-19T04:14:48;19.80;99.90
18779;DHT22;9518;51.720;14.384;2022-08-19T04:17:15;19.80;99.90
18779;DHT22;9518;51.720;14.384;2022-08-19T04:19:42;19.90;99.90
18779;DHT22;9518;51.720;14.384;2022-08-19T04:22:09;19.80;99.90
18779;DHT22;9518;51.720;14.384;2022-08-19T04:24:37;19.80;99.90
18779;DHT22;9518;51.720;14.384;2022-08-19T04:27:05;19.80;99.90
18779;DHT22;9518;51.720;14.384;2022-08-19T04:29:33;19.80;99.90
18779;DHT22;9518;51.720;14.384;2022-08-19T04:32:00;19.90;99.90
18779;DHT22;9518;51.720;14.384;2022-08-19T04:34:28;20.00;99.90
18779;DHT22;9518;51.720;14.384;2022-08-19T04:36:57;20.10;99.90
18779;DHT22;9518;51.720;14.384;2022-08-19T04:39:26;20.10;99.90
18779;DHT22;9518;51.720;14.384;2022-08-19T04:42:15;20.10;99.90
18779;DHT22;9518;51.720;14.384;2022-08-19T04:45:02;20.20;99.90
18779;DHT22;9518;51.720;14.384;2022-08-19T04:47:30;20.30;99.90
18779;DHT22;9518;51.720;14.384;2022-08-19T04:49:58;20.30;99.90
18779;DHT22;9518;51.720;14.384;2022-08-19T04:52:25;20.40;99.90
18779;DHT22;9518;51.720;14.384;2022-08-19T04:54:52;20.40;99.90
18779;DHT22;9518;51.720;14.384;2022-08-19T04:57:20;20.40;99.90
18779;DHT22;9518;51.720;14.384;2022-08-19T04:59:48;20.40;99.90
18779;DHT22;9518;51.720;14.384;2022-08-19T05:02:16;20.50;99.90
18779;DHT22;9518;51.720;14.384;2022-08-19T05:04:43;20.50;99.90
18779;DHT22;9518;51.720;14.384;2022-08-19T05:07:10;20.50;99.90
18779;DHT22;9518;51.720;14.384;2022-08-19T05:09:37;20.50;99.90
18779;DHT22;9518;51.720;14.384;2022-08-19T05:12:05;20.70;99.90
18779;DHT22;9518;51.720;14.384;2022-08-19T05:14:32;20.70;99.90
18779;DHT22;9518;51.720;14.384;2022-08-19T05:17:00;20.80;99.90
18779;DHT22;9518;51.720;14.384;2022-08-19T05:19:28;20.90;99.90
18779;DHT22;9518;51.720;14.384;2022-08-19T05:22:13;21.00;99.90
18779;DHT22;9518;51.720;14.384;2022-08-19T05:25:13;21.00;99.90
18779;DHT22;9518;51.720;14.384;2022-08-19T05:27:41;21.00;99.90
18779;DHT22;9518;51.720;14.384;2022-08-19T05:30:09;21.00;99.90
18779;DHT22;9518;51.720;14.384;2022-08-19T05:32:37;20.90;99.90
18779;DHT22;9518;51.720;14.384;2022-08-19T05:35:06;20.90;99.90
18779;DHT22;9518;51.720;14.384;2022-08-19T05:37:33;20.80;99.90
18779;DHT22;9518;51.720;14.384;2022-08-19T05:40:00;20.80;99.90
18779;DHT22;9518;51.720;14.384;2022-08-19T05:42:27;20.70;99.90
18779;DHT22;9518;51.720;14.384;2022-08-19T05:44:56;20.70;99.90
18779;DHT22;9518;51.720;14.384;2022-08-19T05:47:22;20.70;99.90
18779;DHT22;9518;51.720;14.384;2022-08-19T05:49:49;20.70;99.90
18779;DHT22;9518;51.720;14.384;2022-08-19T05:52:19;20.80;99.90
18779;DHT22;9518;51.720;14.384;2022-08-19T05:54:46;20.80;99.90
18779;DHT22;9518;51.720;14.384;2022-08-19T05:57:16;20.90;99.90
18779;DHT22;9518;51.720;14.384;2022-08-19T05:59:43;21.00;99.90
18779;DHT22;9518;51.720;14.384;2022-08-19T06:02:11;21.20;99.90
18779;DHT22;9518;51.720;14.384;2022-08-19T06:04:38;21.40;99.90
18779;DHT22;9518;51.720;14.384;2022-08-19T06:07:08;21.60;99.90
18779;DHT22;9518;51.720;14.384;2022-08-19T06:09:36;21.80;99.90
18779;DHT22;9518;51.720;14.384;2022-08-19T06:12:03;21.90;99.90
18779;DHT22;9518;51.720;14.384;2022-08-19T06:14:32;21.90;99.90
18779;DHT22;9518;51.720;14.384;2022-08-19T06:17:00;21.90;99.90
18779;DHT22;9518;51.720;14.384;2022-08-19T06:19:29;22.10;99.90
18779;DHT22;9518;51.720;14.384;2022-08-19T06:21:57;22.10;99.90
18779;DHT22;9518;51.720;14.384;2022-08-19T06:24:26;22.20;99.90
18779;DHT22;9518;51.720;14.384;2022-08-19T06:26:55;22.20;99.90
18779;DHT22;9518;51.720;14.384;2022-08-19T06:29:24;22.40;99.90
18779;DHT22;9518;51.720;14.384;2022-08-19T06:31:54;22.50;99.90
18779;DHT22;9518;51.720;14.384;2022-08-19T06:34:22;22.60;99.90
18779;DHT22;9518;51.720;14.384;2022-08-19T06:36:50;22.80;99.90
18779;DHT22;9518;51.720;14.384;2022-08-19T06:39:20;22.80;99.90
18779;DHT22;9518;51.720;14.384;2022-08-19T06:41:49;22.70;99.90
18779;DHT22;9518;51.720;14.384;2022-08-19T06:44:19;22.90;99.90
18779;DHT22;9518;51.720;14.384;2022-08-19T06:46:47;22.90;66.00
18779;DHT22;9518;51.720;14.384;2022-08-19T06:49:14;23.00;1.00
18779;DHT22;9518;51.720;14.384;2022-08-19T06:51:42;23.20;1.00
18779;DHT22;9518;51.720;14.384;2022-08-19T06:54:09;23.10;1.00
18779;DHT22;9518;51.720;14.384;2022-08-19T06:56:37;23.00;1.00
18779;DHT22;9518;51.720;14.384;2022-08-19T06:59:06;23.00;1.00
18779;DHT22;9518;51.720;14.384;2022-08-19T07:01:36;23.20;99.90
18779;DHT22;9518;51.720;14.384;2022-08-19T07:04:05;23.20;1.00
18779;DHT22;9518;51.720;14.384;2022-08-19T07:06:32;23.40;99.90
18779;DHT22;9518;51.720;14.384;2022-08-19T07:08:59;23.50;1.00
18779;DHT22;9518;51.720;14.384;2022-08-19T07:11:26;23.50;1.00
18779;DHT22;9518;51.720;14.384;2022-08-19T07:13:53;23.50;1.00
18779;DHT22;9518;51.720;14.384;2022-08-19T07:16:21;23.50;1.00
18779;DHT22;9518;51.720;14.384;2022-08-19T07:18:50;23.30;1.00
18779;DHT22;9518;51.720;14.384;2022-08-19T07:21:19;23.00;1.00
18779;DHT22;9518;51.720;14.384;2022-08-19T07:23:47;22.80;1.00
18779;DHT22;9518;51.720;14.384;2022-08-19T07:26:17;22.80;99.90
18779;DHT22;9518;51.720;14.384;2022-08-19T07:28:44;22.70;99.90
18779;DHT22;9518;51.720;14.384;2022-08-19T07:31:12;22.80;1.00
18779;DHT22;9518;51.720;14.384;2022-08-19T07:33:40;22.70;99.90
18779;DHT22;9518;51.720;14.384;2022-08-19T07:36:11;22.80;99.90
18779;DHT22;9518;51.720;14.384;2022-08-19T07:38:40;22.60;1.00
18779;DHT22;9518;51.720;14.384;2022-08-19T07:41:09;22.50;1.00
18779;DHT22;9518;51.720;14.384;2022-08-19T07:43:36;22.50;1.00
18779;DHT22;9518;51.720;14.384;2022-08-19T07:46:03;22.50;17.90
18779;DHT22;9518;51.720;14.384;2022-08-19T07:48:30;22.70;1.00
18779;DHT22;9518;51.720;14.384;2022-08-19T07:51:00;22.80;99.90
18779;DHT22;9518;51.720;14.384;2022-08-19T07:53:29;22.80;99.90
18779;DHT22;9518;51.720;14.384;2022-08-19T07:55:57;22.90;99.90
18779;DHT22;9518;51.720;14.384;2022-08-19T07:58:29;22.90;1.00
18779;DHT22;9518;51.720;14.384;2022-08-19T08:00:57;22.80;1.00
18779;DHT22;9518;51.720;14.384;2022-08-19T08:03:25;22.70;1.00
18779;DHT22;9518;51.720;14.384;2022-08-19T08:06:24;22.60;13.70
18779;DHT22;9518;51.720;14.384;2022-08-19T08:09:11;22.50;1.00
18779;DHT22;9518;51.720;14.384;2022-08-19T08:11:44;22.50;1.00
18779;DHT22;9518;51.720;14.384;2022-08-19T08:14:15;22.50;1.00
18779;DHT22;9518;51.720;14.384;2022-08-19T08:16:42;22.50;1.00
18779;DHT22;9518;51.720;14.384;2022-08-19T08:19:11;22.40;99.90
18779;DHT22;9518;51.720;14.384;2022-08-19T08:21:41;22.50;1.00
18779;DHT22;9518;51.720;14.384;2022-08-19T08:24:09;22.40;1.00
18779;DHT22;9518;51.720;14.384;2022-08-19T08:26:37;22.50;99.80
18779;DHT22;9518;51.720;14.384;2022-08-19T08:29:04;22.40;1.00
18779;DHT22;9518;51.720;14.384;2022-08-19T08:31:33;22.30;1.00
18779;DHT22;9518;51.720;14.384;2022-08-19T08:34:00;22.20;1.00
18779;DHT22;9518;51.720;14.384;2022-08-19T08:36:27;22.10;1.00
18779;DHT22;9518;51.720;14.384;2022-08-19T08:38:54;22.00;1.00
18779;DHT22;9518;51.720;14.384;2022-08-19T08:41:34;22.10;1.00
18779;DHT22;9518;51.720;14.384;2022-08-19T08:44:04;22.10;99.90
18779;DHT22;9518;51.720;14.384;2022-08-19T08:46:37;22.10;1.00
18779;DHT22;9518;51.720;14.384;2022-08-19T08:49:20;22.20;1.00
18779;DHT22;9518;51.720;14.384;2022-08-19T08:51:54;22.20;1.00
18779;DHT22;9518;51.720;14.384;2022-08-19T08:54:30;22.20;99.90
18779;DHT22;9518;51.720;14.384;2022-08-19T08:56:59;22.30;1.00
18779;DHT22;9518;51.720;14.384;2022-08-19T08:59:29;22.30;1.00
18779;DHT22;9518;51.720;14.384;2022-08-19T09:01:58;22.30;1.00
18779;DHT22;9518;51.720;14.384;2022-08-19T09:04:25;22.40;1.00
18779;DHT22;9518;51.720;14.384;2022-08-19T09:06:57;22.60;99.90
18779;DHT22;9518;51.720;14.384;2022-08-19T09:09:32;22.80;99.90
18779;DHT22;9518;51.720;14.384;2022-08-19T09:12:06;23.10;1.00
18779;DHT22;9518;51.720;14.384;2022-08-19T09:14:43;23.20;1.00
18779;DHT22;9518;51.720;14.384;2022-08-19T09:17:13;23.20;99.90
18779;DHT22;9518;51.720;14.384;2022-08-19T09:19:50;23.30;99.90
18779;DHT22;9518;51.720;14.384;2022-08-19T09:22:17;23.30;1.00
18779;DHT22;9518;51.720;14.384;2022-08-19T09:24:47;23.30;1.00
18779;DHT22;9518;51.720;14.384;2022-08-19T09:27:16;23.30;1.00
18779;DHT22;9518;51.720;14.384;2022-08-19T09:29:43;23.40;1.00
18779;DHT22;9518;51.720;14.384;2022-08-19T09:32:10;23.60;1.00
18779;DHT22;9518;51.720;14.384;2022-08-19T09:34:37;23.60;99.90
18779;DHT22;9518;51.720;14.384;2022-08-19T09:37:04;23.60;1.00
18779;DHT22;9518;51.720;14.384;2022-08-19T09:39:31;23.60;99.90
18779;DHT22;9518;51.720;14.384;2022-08-19T09:41:58;23.60;99.90
18779;DHT22;9518;51.720;14.384;2022-08-19T09:44:27;23.60;99.90
18779;DHT22;9518;51.720;14.384;2022-08-19T09:46:54;23.60;55.80
18779;DHT22;9518;51.720;14.384;2022-08-19T09:49:21;23.60;1.00
18779;DHT22;9518;51.720;14.384;2022-08-19T09:51:50;23.70;1.00
18779;DHT22;9518;51.720;14.384;2022-08-19T09:54:18;23.60;99.90
18779;DHT22;9518;51.720;14.384;2022-08-19T09:56:45;23.60;1.00
18779;DHT22;9518;51.720;14.384;2022-08-19T09:59:11;23.60;99.90
18779;DHT22;9518;51.720;14.384;2022-08-19T10:01:40;23.70;1.00
18779;DHT22;9518;51.720;14.384;2022-08-19T10:04:07;23.80;1.00
18779;DHT22;9518;51.720;14.384;2022-08-19T10:06:36;23.80;1.00
18779;DHT22;9518;51.720;14.384;2022-08-19T10:09:04;23.80;1.00
18779;DHT22;9518;51.720;14.384;2022-08-19T10:11:32;23.90;1.00
18779;DHT22;9518;51.720;14.384;2022-08-19T10:14:00;23.90;99.90
18779;DHT22;9518;51.720;14.384;2022-08-19T10:16:29;23.80;1.00
18779;DHT22;9518;51.720;14.384;2022-08-19T10:18:57;23.90;1.00
18779;DHT22;9518;51.720;14.384;2022-08-19T10:21:26;23.90;1.00
18779;DHT22;9518;51.720;14.384;2022-08-19T10:23:56;23.90;99.90
18779;DHT22;9518;51.720;14.384;2022-08-19T10:26:25;23.90;1.00
18779;DHT22;9518;51.720;14.384;2022-08-19T10:28:53;24.00;99.90
18779;DHT22;9518;51.720;14.384;2022-08-19T10:31:23;24.00;99.90
18779;DHT22;9518;51.720;14.384;2022-08-19T10:33:51;24.00;99.90
18779;DHT22;9518;51.720;14.384;2022-08-19T10:36:22;24.00;1.00
18779;DHT22;9518;51.720;14.384;2022-08-19T10:38:52;24.00;1.00
18779;DHT22;9518;51.720;14.384;2022-08-19T10:41:22;24.00;99.90
18779;DHT22;9518;51.720;14.384;2022-08-19T10:43:51;24.00;99.90
18779;DHT22;9518;51.720;14.384;2022-08-19T10:46:18;24.00;99.90
18779;DHT22;9518;51.720;14.384;2022-08-19T10:48:45;24.10;99.90
18779;DHT22;9518;51.720;14.384;2022-08-19T10:51:13;24.10;99.90
18779;DHT22;9518;51.720;14.384;2022-08-19T10:53:59;24.10;99.90
18779;DHT22;9518;51.720;14.384;2022-08-19T10:56:27;24.10;99.90
18779;DHT22;9518;51.720;14.384;2022-08-19T10:59:12;24.20;99.90
18779;DHT22;9518;51.720;14.384;2022-08-19T11:01:41;24.20;99.90
18779;DHT22;9518;51.720;14.384;2022-08-19T11:04:08;24.10;99.90
18779;DHT22;9518;51.720;14.384;2022-08-19T11:06:39;24.20;99.90
18779;DHT22;9518;51.720;14.384;2022-08-19T11:09:08;24.20;99.90
18779;DHT22;9518;51.720;14.384;2022-08-19T11:11:39;24.10;1.00
18779;DHT22;9518;51.720;14.384;2022-08-19T11:14:07;24.00;1.00
18779;DHT22;9518;51.720;14.384;2022-08-19T11:16:35;23.90;1.00
18779;DHT22;9518;51.720;14.384;2022-08-19T11:19:05;23.70;1.00
18779;DHT22;9518;51.720;14.384;2022-08-19T11:21:34;23.80;1.00
18779;DHT22;9518;51.720;14.384;2022-08-19T11:24:04;23.90;1.00
18779;DHT22;9518;51.720;14.384;2022-08-19T11:26:34;24.00;1.00
18779;DHT22;9518;51.720;14.384;2022-08-19T11:29:02;24.10;1.00
18779;DHT22;9518;51.720;14.384;2022-08-19T11:31:32;24.10;99.90
18779;DHT22;9518;51.720;14.384;2022-08-19T11:34:03;24.20;99.90
18779;DHT22;9518;51.720;14.384;2022-08-19T11:36:31;24.30;99.90
18779;DHT22;9518;51.720;14.384;2022-08-19T11:38:59;24.30;99.90
18779;DHT22;9518;51.720;14.384;2022-08-19T11:41:26;24.30;99.90
18779;DHT22;9518;51.720;14.384;2022-08-19T11:43:54;24.30;99.90
18779;DHT22;9518;51.720;14.384;2022-08-19T11:46:25;24.20;99.90
18779;DHT22;9518;51.720;14.384;2022-08-19T11:48:54;24.30;99.90
18779;DHT22;9518;51.720;14.384;2022-08-19T11:51:23;24.30;1.00
18779;DHT22;9518;51.720;14.384;2022-08-19T11:53:51;24.40;99.90
18779;DHT22;9518;51.720;14.384;2022-08-19T11:56:19;24.50;99.90
18779;DHT22;9518;51.720;14.384;2022-08-19T11:58:46;24.60;99.90
18779;DHT22;9518;51.720;14.384;2022-08-19T12:01:16;24.60;99.90
18779;DHT22;9518;51.720;14.384;2022-08-19T12:03:46;24.70;1.00
18779;DHT22;9518;51.720;14.384;2022-08-19T12:06:15;24.80;1.00
18779;DHT22;9518;51.720;14.384;2022-08-19T12:08:44;24.70;1.00
18779;DHT22;9518;51.720;14.384;2022-08-19T12:11:12;24.80;1.00
18779;DHT22;9518;51.720;14.384;2022-08-19T12:13:40;24.80;1.00
18779;DHT22;9518;51.720;14.384;2022-08-19T12:16:15;24.70;1.00
18779;DHT22;9518;51.720;14.384;2022-08-19T12:18:43;24.60;1.00
18779;DHT22;9518;51.720;14.384;2022-08-19T12:21:12;24.60;1.00
18779;DHT22;9518;51.720;14.384;2022-08-19T12:23:39;24.60;1.00
18779;DHT22;9518;51.720;14.384;2022-08-19T12:26:08;24.70;1.00
18779;DHT22;9518;51.720;14.384;2022-08-19T12:28:35;24.70;99.90
18779;DHT22;9518;51.720;14.384;2022-08-19T12:31:02;24.70;99.90
18779;DHT22;9518;51.720;14.384;2022-08-19T12:33:31;24.80;1.00
18779;DHT22;9518;51.720;14.384;2022-08-19T12:36:01;24.80;1.00
18779;DHT22;9518;51.720;14.384;2022-08-19T12:38:29;25.00;1.00
18779;DHT22;9518;51.720;14.384;2022-08-19T12:40:56;24.90;1.00
18779;DHT22;9518;51.720;14.384;2022-08-19T12:43:23;24.70;1.00
18779;DHT22;9518;51.720;14.384;2022-08-19T12:45:50;24.40;1.00
18779;DHT22;9518;51.720;14.384;2022-08-19T12:48:17;24.20;1.00
18779;DHT22;9518;51.720;14.384;2022-08-19T12:50:45;24.10;99.90
18779;DHT22;9518;51.720;14.384;2022-08-19T12:53:12;24.00;1.00
18779;DHT22;9518;51.720;14.384;2022-08-19T12:55:39;23.80;99.90
18779;DHT22;9518;51.720;14.384;2022-08-19T12:58:08;23.70;1.00
18779;DHT22;9518;51.720;14.384;2022-08-19T13:00:35;23.70;1.00
18779;DHT22;9518;51.720;14.384;2022-08-19T13:03:02;23.90;1.00
18779;DHT22;9518;51.720;14.384;2022-08-19T13:05:31;24.00;1.00
18779;DHT22;9518;51.720;14.384;2022-08-19T13:08:00;24.20;99.90
18779;DHT22;9518;51.720;14.384;2022-08-19T13:10:29;24.30;1.00
18779;DHT22;9518;51.720;14.384;2022-08-19T13:12:57;24.50;1.00
18779;DHT22;9518;51.720;14.384;2022-08-19T13:15:25;24.70;1.00
18779;DHT22;9518;51.720;14.384;2022-08-19T13:17:54;24.80;99.90
18779;DHT22;9518;51.720;14.384;2022-08-19T13:20:22;25.00;99.90
18779;DHT22;9518;51.720;14.384;2022-08-19T13:22:49;25.10;14.50
18779;DHT22;9518;51.720;14.384;2022-08-19T13:25:18;25.40;1.00
18779;DHT22;9518;51.720;14.384;2022-08-19T13:27:46;25.80;1.00
18779;DHT22;9518;51.720;14.384;2022-08-19T13:30:15;26.00;1.00
18779;DHT22;9518;51.720;14.384;2022-08-19T13:33:00;26.20;1.00
18779;DHT22;9518;51.720;14.384;2022-08-19T13:35:42;26.40;99.90
18779;DHT22;9518;51.720;14.384;2022-08-19T13:38:09;26.30;99.90
18779;DHT22;9518;51.720;14.384;2022-08-19T13:40:39;26.10;99.90
18779;DHT22;9518;51.720;14.384;2022-08-19T13:43:06;25.90;1.00
18779;DHT22;9518;51.720;14.384;2022-08-19T13:45:34;25.70;1.00
18779;DHT22;9518;51.720;14.384;2022-08-19T13:48:04;25.30;1.00
18779;DHT22;9518;51.720;14.384;2022-08-19T13:50:33;25.10;1.00
18779;DHT22;9518;51.720;14.384;2022-08-19T13:53:01;24.70;1.00
18779;DHT22;9518;51.720;14.384;2022-08-19T13:55:29;24.40;99.90
18779;DHT22;9518;51.720;14.384;2022-08-19T13:57:59;24.30;1.00
18779;DHT22;9518;51.720;14.384;2022-08-19T14:00:31;24.10;1.00
18779;DHT22;9518;51.720;14.384;2022-08-19T14:02:58;23.90;1.00
18779;DHT22;9518;51.720;14.384;2022-08-19T14:05:27;23.90;1.00
18779;DHT22;9518;51.720;14.384;2022-08-19T14:07:54;24.00;1.00
18779;DHT22;9518;51.720;14.384;2022-08-19T14:10:22;24.00;1.00
18779;DHT22;9518;51.720;14.384;2022-08-19T14:12:52;24.20;1.00
18779;DHT22;9518;51.720;14.384;2022-08-19T14:15:22;24.20;1.00
18779;DHT22;9518;51.720;14.384;2022-08-19T14:17:49;24.20;1.00
18779;DHT22;9518;51.720;14.384;2022-08-19T14:20:16;24.10;1.00
18779;DHT22;9518;51.720;14.384;2022-08-19T14:22:45;24.20;1.00
18779;DHT22;9518;51.720;14.384;2022-08-19T14:25:14;24.30;1.00
18779;DHT22;9518;51.720;14.384;2022-08-19T14:27:41;24.20;1.00
18779;DHT22;9518;51.720;14.384;2022-08-19T14:30:11;24.00;1.00
18779;DHT22;9518;51.720;14.384;2022-08-19T14:32:41;23.90;1.00
18779;DHT22;9518;51.720;14.384;2022-08-19T14:35:09;23.70;99.90
18779;DHT22;9518;51.720;14.384;2022-08-19T14:37:38;23.80;1.00
18779;DHT22;9518;51.720;14.384;2022-08-19T14:40:06;23.80;99.90
18779;DHT22;9518;51.720;14.384;2022-08-19T14:42:34;23.70;1.00
18779;DHT22;9518;51.720;14.384;2022-08-19T14:45:01;23.60;1.00
18779;DHT22;9518;51.720;14.384;2022-08-19T14:47:31;23.70;1.00
18779;DHT22;9518;51.720;14.384;2022-08-19T14:49:59;23.70;1.00
18779;DHT22;9518;51.720;14.384;2022-08-19T14:52:26;23.60;1.00
18779;DHT22;9518;51.720;14.384;2022-08-19T14:54:53;23.50;1.00
18779;DHT22;9518;51.720;14.384;2022-08-19T14:57:20;23.30;99.90
18779;DHT22;9518;51.720;14.384;2022-08-19T14:59:47;23.10;99.90
18779;DHT22;9518;51.720;14.384;2022-08-19T15:02:13;23.00;99.90
18779;DHT22;9518;51.720;14.384;2022-08-19T15:04:40;22.80;93.30
18779;DHT22;9518;51.720;14.384;2022-08-19T15:07:09;22.90;99.90
18779;DHT22;9518;51.720;14.384;2022-08-19T15:09:37;22.90;1.00
18779;DHT22;9518;51.720;14.384;2022-08-19T15:12:04;22.90;99.90
18779;DHT22;9518;51.720;14.384;2022-08-19T15:14:31;23.00;99.90
18779;DHT22;9518;51.720;14.384;2022-08-19T15:17:01;23.00;1.00
18779;DHT22;9518;51.720;14.384;2022-08-19T15:19:28;23.10;55.80
18779;DHT22;9518;51.720;14.384;2022-08-19T15:21:55;23.10;14.50
18779;DHT22;9518;51.720;14.384;2022-08-19T15:24:24;23.20;1.00
18779;DHT22;9518;51.720;14.384;2022-08-19T15:26:52;23.10;99.90
18779;DHT22;9518;51.720;14.384;2022-08-19T15:29:21;23.00;99.90
18779;DHT22;9518;51.720;14.384;2022-08-19T15:31:50;22.90;1.00
18779;DHT22;9518;51.720;14.384;2022-08-19T15:34:17;22.70;99.90
18779;DHT22;9518;51.720;14.384;2022-08-19T15:36:44;22.60;99.90
18779;DHT22;9518;51.720;14.384;2022-08-19T15:39:11;22.60;1.00
18779;DHT22;9518;51.720;14.384;2022-08-19T15:41:40;22.60;99.90
18779;DHT22;9518;51.720;14.384;2022-08-19T15:44:09;22.60;99.90
18779;DHT22;9518;51.720;14.384;2022-08-19T15:46:39;22.70;1.00
18779;DHT22;9518;51.720;14.384;2022-08-19T15:49:06;22.80;1.00